Time,TemperatureF,DewpointF,PressureIn,WindDirection,WindDirectionDegrees,WindSpeedMPH,WindSpeedGustMPH,Humidity,HourlyPrecipIn,Conditions,Clouds,dailyrainin,SoftwareType,DateUTC
2013-04-15 11:19:00,0.0,33.8,30.28,SSE,161,1.0,1.0,0,0.00,,BKN080,0.00,VWS V14.01,2013-04-15 15:19:00,
2013-04-15 11:24:00,53.6,33.9,30.28,ESE,118,0.0,9.0,47,0.00,,BKN080,0.00,VWS V14.01,2013-04-15 15:24:00,
2013-04-15 11:29:00,54.2,34.4,30.29,South,170,0.0,10.0,47,0.00,,BKN080,0.00,VWS V14.01,2013-04-15 15:29:00,
2013-04-15 11:34:00,54.5,34.2,30.28,SSW,203,0.0,9.0,46,0.00,,BKN080,0.00,VWS V14.01,2013-04-15 15:34:00,
2013-04-15 11:39:00,55.2,34.8,30.28,SE,146,0.0,9.0,46,0.00,,BKN080,0.00,VWS V14.01,2013-04-15 15:39:00,
2013-04-15 11:44:00,55.6,35.2,30.28,South,185,0.0,9.0,46,0.00,,BKN080,0.00,VWS V14.01,2013-04-15 15:44:00,
2013-04-15 11:49:00,56.0,35.0,30.28,SSE,151,0.0,9.0,45,0.00,,BKN080,0.00,VWS V14.01,2013-04-15 15:49:00,
2013-04-15 11:54:00,56.0,35.0,30.28,SSE,156,0.0,11.0,45,0.00,,BKN080,0.00,VWS V14.01,2013-04-15 15:54:00,
2013-04-15 11:59:00,56.2,35.2,30.28,SSW,211,5.0,11.0,45,0.00,,BKN080,0.00,VWS V14.01,2013-04-15 15:59:00,
2013-04-15 12:04:00,56.3,34.1,30.28,SW,214,5.0,10.0,43,0.00,,BKN260,0.00,VWS V14.01,2013-04-15 16:04:00,
2013-04-15 12:09:00,56.2,34.0,30.28,SSW,192,5.0,10.0,43,0.00,,BKN260,0.00,VWS V14.01,2013-04-15 16:09:00,
2013-04-15 12:14:00,56.3,34.1,30.28,SSW,200,6.0,10.0,43,0.00,,BKN260,0.00,VWS V14.01,2013-04-15 16:14:00,
2013-04-15 12:19:00,56.5,34.9,30.28,WSW,241,4.0,10.0,44,0.00,,BKN260,0.00,VWS V14.01,2013-04-15 16:19:00,
2013-04-15 12:24:00,56.7,35.0,30.28,SSE,147,3.0,10.0,44,0.00,,BKN260,0.00,VWS V14.01,2013-04-15 16:24:00,
2013-04-15 12:29:00,56.9,35.8,30.28,SSE,152,1.0,10.0,45,0.00,,BKN260,0.00,VWS V14.01,2013-04-15 16:29:00,
2013-04-15 12:34:00,57.1,35.4,30.28,SSE,152,1.0,13.0,44,0.00,,BKN260,0.00,VWS V14.01,2013-04-15 16:34:00,
2013-04-15 12:39:00,57.3,35.6,30.28,SSE,163,0.0,13.0,44,0.00,,BKN260,0.00,VWS V14.01,2013-04-15 16:39:00,
2013-04-15 12:44:00,57.5,35.8,30.28,SSE,165,1.0,13.0,44,0.00,,BKN260,0.00,VWS V14.01,2013-04-15 16:44:00,
2013-04-15 12:49:00,57.5,35.2,30.27,SSW,209,9.0,13.0,43,0.00,,BKN260,0.00,VWS V14.01,2013-04-15 16:49:00,
2013-04-15 12:54:00,57.3,35.6,30.27,SW,214,2.0,13.0,44,0.00,,BKN260,0.00,VWS V14.01,2013-04-15 16:54:00,
2013-04-15 12:59:00,57.3,36.2,30.27,SSE,155,4.0,13.0,44,0.00,,BKN260,0.00,VWS V14.01,2013-04-15 16:59:00,
2013-04-15 13:04:00,57.6,35.3,30.26,SW,216,4.0,8.0,43,0.00,,BKN260,0.00,VWS V14.01,2013-04-15 17:04:00,
2013-04-15 13:09:00,57.5,35.9,30.27,SSW,202,1.0,8.0,44,0.00,,BKN260,0.00,VWS V14.01,2013-04-15 17:09:00,
2013-04-15 13:14:00,57.4,35.7,30.26,SSE,153,8.0,11.0,44,0.00,,BKN260,0.00,VWS V14.01,2013-04-15 17:14:00,
2013-04-15 13:19:00,57.4,36.2,30.27,SSE,164,0.0,11.0,45,0.00,,BKN260,0.00,VWS V14.01,2013-04-15 17:19:00,
2013-04-15 13:21:00,57.4,36.2,30.27,WSW,238,1.0,11.0,45,0.00,,BKN260,0.00,VWS V14.01,2013-04-15 17:21:00,
2013-04-15 13:25:00,57.5,36.4,30.27,SSE,155,7.0,12.0,45,0.00,,BKN260,0.00,VWS V14.01,2013-04-15 17:25:00,
2013-04-15 13:30:00,57.7,36.5,30.27,South,181,7.0,12.0,45,0.00,,BKN260,0.00,VWS V14.01,2013-04-15 17:30:00,
2013-04-15 13:35:00,57.7,37.1,30.27,SSE,162,2.0,9.0,46,0.00,,BKN260,0.00,VWS V14.01,2013-04-15 17:35:00,
2013-04-15 13:40:00,58.1,36.9,30.27,SE,144,5.0,10.0,45,0.00,,BKN260,0.00,VWS V14.01,2013-04-15 17:40:00,
2013-04-15 13:45:00,58.6,37.3,30.26,SE,124,4.0,10.0,45,0.00,,BKN260,0.00,VWS V14.01,2013-04-15 17:45:00,
2013-04-15 13:50:00,58.9,36.5,30.26,SSW,199,6.0,11.0,44,0.00,,BKN260,0.00,VWS V14.01,2013-04-15 17:50:00,
2013-04-15 13:55:00,59.0,37.1,30.26,SE,137,4.0,11.0,44,0.00,,BKN260,0.00,VWS V14.01,2013-04-15 17:55:00,
2013-04-15 14:00:00,59.2,36.7,30.26,South,177,2.0,11.0,43,0.00,,BKN260,0.00,VWS V14.01,2013-04-15 18:00:00,
2013-04-15 14:05:00,59.5,37.0,30.26,SSE,149,4.0,12.0,43,0.00,,BKN260,0.00,VWS V14.01,2013-04-15 18:05:00,
2013-04-15 14:10:00,59.7,37.2,30.26,SSE,157,5.0,12.0,43,0.00,,BKN260,0.00,VWS V14.01,2013-04-15 18:10:00,
2013-04-15 14:15:00,60.2,37.6,30.26,SSE,154,2.0,12.0,43,0.00,,BKN260,0.00,VWS V14.01,2013-04-15 18:15:00,
2013-04-15 14:20:00,60.4,38.4,30.26,SSW,201,1.0,12.0,44,0.00,,BKN260,0.00,VWS V14.01,2013-04-15 18:20:00,
2013-04-15 14:25:00,60.3,37.7,30.27,SW,235,6.0,12.0,43,0.00,,BKN260,0.00,VWS V14.01,2013-04-15 18:25:00,
2013-04-15 14:29:00,60.3,37.7,30.26,SSE,161,12.0,13.0,43,0.00,,BKN260,0.00,VWS V14.01,2013-04-15 18:29:00,
2013-04-15 14:34:00,60.6,38.0,30.27,SE,136,1.0,11.0,43,0.00,,BKN260,0.00,VWS V14.01,2013-04-15 18:34:00,
2013-04-15 14:39:00,60.8,37.6,30.26,SE,145,1.0,11.0,42,0.00,,BKN260,0.00,VWS V14.01,2013-04-15 18:39:00,
2013-04-15 14:44:00,60.8,38.2,30.26,South,174,1.0,11.0,43,0.00,,BKN260,0.00,VWS V14.01,2013-04-15 18:44:00,
2013-04-15 14:49:00,60.7,38.1,30.27,SSW,205,2.0,11.0,43,0.00,,BKN260,0.00,VWS V14.01,2013-04-15 18:49:00,
2013-04-15 14:54:00,60.7,38.7,30.26,WSW,240,3.0,11.0,43,0.00,,BKN260,0.00,VWS V14.01,2013-04-15 18:54:00,
2013-04-15 14:59:00,60.8,38.2,30.27,South,190,10.0,11.0,43,0.00,,BKN260,0.00,VWS V14.01,2013-04-15 18:59:00,
2013-04-15 15:04:00,60.8,38.2,30.27,SSW,195,2.0,8.0,43,0.00,,BKN260,0.00,VWS V14.01,2013-04-15 19:04:00,
2013-04-15 15:09:00,60.9,38.3,30.27,SSW,198,4.0,8.0,43,0.00,,BKN260,0.00,VWS V14.01,2013-04-15 19:09:00,
2013-04-15 15:14:00,61.0,37.8,30.26,South,178,2.0,9.0,43,0.00,,BKN260,0.00,VWS V14.01,2013-04-15 19:14:00,
2013-04-15 15:19:00,60.8,37.0,30.26,SSW,202,5.0,10.0,41,0.00,,BKN260,0.00,VWS V14.01,2013-04-15 19:19:00,
2013-04-15 15:24:00,60.6,38.0,30.26,SSW,204,0.0,10.0,43,0.00,,BKN260,0.00,VWS V14.01,2013-04-15 19:24:00,
2013-04-15 15:29:00,61.2,36.7,30.25,SSW,206,6.0,10.0,40,0.00,,BKN260,0.00,VWS V14.01,2013-04-15 19:29:00,
2013-04-15 15:34:00,61.2,36.7,30.25,SSW,198,9.0,11.0,40,0.00,,BKN260,0.00,VWS V14.01,2013-04-15 19:34:00,
2013-04-15 15:39:00,60.9,35.1,30.25,South,181,1.0,11.0,38,0.00,,BKN260,0.00,VWS V14.01,2013-04-15 19:39:00,
2013-04-15 15:44:00,61.1,37.2,30.26,SW,221,0.0,11.0,41,0.00,,BKN260,0.00,VWS V14.01,2013-04-15 19:44:00,
2013-04-15 15:50:00,61.4,37.5,30.25,SW,221,1.0,11.0,42,0.00,,BKN260,0.00,VWS V14.01,2013-04-15 19:50:00,
2013-04-15 15:55:00,61.2,37.3,30.26,South,188,2.0,12.0,41,0.00,,BKN260,0.00,VWS V14.01,2013-04-15 19:55:00,
2013-04-15 15:57:00,61.0,37.2,30.26,SSW,203,1.0,12.0,41,0.00,,BKN260,0.00,VWS V14.01,2013-04-15 19:57:00,
2013-04-15 15:58:00,60.9,37.1,30.25,SSW,196,7.0,12.0,41,0.00,,BKN260,0.00,VWS V14.01,2013-04-15 19:58:00,
2013-04-15 16:02:00,60.8,37.0,30.26,SSE,151,1.0,7.0,41,0.00,,SCT260,0.00,VWS V14.01,2013-04-15 20:02:00,
2013-04-15 16:07:00,61.2,37.3,30.25,South,184,1.0,8.0,41,0.00,,SCT260,0.00,VWS V14.01,2013-04-15 20:07:00,
2013-04-15 16:12:00,61.2,36.7,30.25,SSE,164,0.0,8.0,40,0.00,,SCT260,0.00,VWS V14.01,2013-04-15 20:12:00,
2013-04-15 16:17:00,61.2,37.3,30.25,SSW,195,0.0,10.0,41,0.00,,SCT260,0.00,VWS V14.01,2013-04-15 20:17:00,
2013-04-15 16:22:00,61.3,36.8,30.25,SSE,148,2.0,10.0,40,0.00,,SCT260,0.00,VWS V14.01,2013-04-15 20:22:00,
2013-04-15 16:27:00,61.4,36.9,30.25,SSE,157,0.0,10.0,40,0.00,,SCT260,0.00,VWS V14.01,2013-04-15 20:27:00,
2013-04-15 16:32:00,61.3,37.4,30.25,SSE,162,2.0,13.0,41,0.00,,SCT260,0.00,VWS V14.01,2013-04-15 20:32:00,
2013-04-15 16:37:00,61.4,36.9,30.25,SSE,148,0.0,13.0,40,0.00,,SCT260,0.00,VWS V14.01,2013-04-15 20:37:00,
2013-04-15 16:42:00,60.8,36.3,30.24,SSE,164,7.0,13.0,40,0.00,,SCT260,0.00,VWS V14.01,2013-04-15 20:42:00,
2013-04-15 16:47:00,60.7,36.9,30.24,SSE,163,4.0,13.0,41,0.00,,SCT260,0.00,VWS V14.01,2013-04-15 20:47:00,
2013-04-15 16:52:00,60.7,35.6,30.24,SSE,157,6.0,13.0,39,0.00,,SCT260,0.00,VWS V14.01,2013-04-15 20:52:00,
2013-04-15 16:57:00,60.9,37.1,30.24,SSW,211,0.0,13.0,41,0.00,,SCT260,0.00,VWS V14.01,2013-04-15 20:57:00,
2013-04-15 17:02:00,61.0,35.9,30.24,SW,224,3.0,8.0,39,0.00,,SCT260,0.00,VWS V14.01,2013-04-15 21:02:00,
2013-04-15 17:07:00,60.5,36.1,30.24,SSE,166,2.0,8.0,40,0.00,,SCT260,0.00,VWS V14.01,2013-04-15 21:07:00,
2013-04-15 17:12:00,60.7,36.3,30.25,South,184,0.0,8.0,40,0.00,,SCT260,0.00,VWS V14.01,2013-04-15 21:12:00,
2013-04-15 17:17:00,61.0,36.5,30.25,SSE,152,3.0,8.0,40,0.00,,SCT260,0.00,VWS V14.01,2013-04-15 21:17:00,
2013-04-15 17:22:00,61.2,36.1,30.25,SSW,192,1.0,8.0,39,0.00,,SCT260,0.00,VWS V14.01,2013-04-15 21:22:00,
2013-04-15 17:27:00,61.3,36.8,30.25,SW,222,0.0,8.0,40,0.00,,SCT260,0.00,VWS V14.01,2013-04-15 21:27:00,
2013-04-15 17:32:00,61.2,36.1,30.25,SSE,155,6.0,8.0,39,0.00,,SCT260,0.00,VWS V14.01,2013-04-15 21:32:00,
2013-04-15 17:37:00,61.2,36.1,30.26,SSE,155,6.0,11.0,39,0.00,,SCT260,0.00,VWS V14.01,2013-04-15 21:37:00,
2013-04-15 17:42:00,61.3,36.2,30.25,SSW,202,2.0,11.0,39,0.00,,SCT260,0.00,VWS V14.01,2013-04-15 21:42:00,
2013-04-15 17:47:00,61.2,37.3,30.26,SSW,203,0.0,11.0,41,0.00,,SCT260,0.00,VWS V14.01,2013-04-15 21:47:00,
2013-04-15 17:52:00,60.7,35.6,30.26,SSW,198,0.0,11.0,39,0.00,,SCT260,0.00,VWS V14.01,2013-04-15 21:52:00,
2013-04-15 17:57:00,60.1,36.3,30.26,South,187,0.0,11.0,41,0.00,,SCT260,0.00,VWS V14.01,2013-04-15 21:57:00,
2013-04-15 18:02:00,60.0,36.2,30.27,SE,145,0.0,4.0,41,0.00,,SCT260,0.00,VWS V14.01,2013-04-15 22:02:00,
2013-04-15 18:07:00,60.2,37.0,30.27,SSW,201,0.0,6.0,42,0.00,,SCT260,0.00,VWS V14.01,2013-04-15 22:07:00,
2013-04-15 18:12:00,60.4,36.6,30.27,SSE,147,0.0,6.0,41,0.00,,SCT260,0.00,VWS V14.01,2013-04-15 22:12:00,
2013-04-15 18:17:00,60.2,36.4,30.27,South,191,1.0,7.0,41,0.00,,SCT260,0.00,VWS V14.01,2013-04-15 22:17:00,
2013-04-15 18:22:00,59.4,36.9,30.27,SSW,194,0.0,7.0,43,0.00,,SCT260,0.00,VWS V14.01,2013-04-15 22:22:00,
2013-04-15 18:27:00,58.6,36.8,30.28,SSE,156,0.0,7.0,44,0.00,,SCT260,0.00,VWS V14.01,2013-04-15 22:27:00,
2013-04-15 18:32:00,58.1,36.9,30.28,SSE,166,2.0,3.0,45,0.00,,SCT260,0.00,VWS V14.01,2013-04-15 22:32:00,
2013-04-15 18:37:00,57.8,36.6,30.27,SSW,198,0.0,7.0,45,0.00,,SCT260,0.00,VWS V14.01,2013-04-15 22:37:00,
2013-04-15 18:42:00,57.9,36.1,30.27,SSE,160,3.0,9.0,44,0.00,,SCT260,0.00,VWS V14.01,2013-04-15 22:42:00,
2013-04-15 18:47:00,57.7,36.5,30.26,SSE,162,1.0,9.0,45,0.00,,SCT260,0.00,VWS V14.01,2013-04-15 22:47:00,
2013-04-15 18:52:00,57.2,36.6,30.27,SSE,155,2.0,9.0,46,0.00,,SCT260,0.00,VWS V14.01,2013-04-15 22:52:00,
2013-04-15 18:57:00,56.8,36.8,30.27,SSE,162,1.0,9.0,47,0.00,,SCT260,0.00,VWS V14.01,2013-04-15 22:57:00,
2013-04-15 19:02:00,56.4,37.0,30.27,SSE,161,0.0,3.0,48,0.00,,BKN260,0.00,VWS V14.01,2013-04-15 23:02:00,
2013-04-15 19:07:00,55.9,37.0,30.27,SSW,198,0.0,7.0,49,0.00,,BKN260,0.00,VWS V14.01,2013-04-15 23:07:00,
2013-04-15 19:12:00,55.5,37.2,30.27,SE,144,0.0,7.0,50,0.00,,BKN260,0.00,VWS V14.01,2013-04-15 23:12:00,
2013-04-15 19:17:00,55.2,36.9,30.27,SSW,204,0.0,7.0,50,0.00,,BKN260,0.00,VWS V14.01,2013-04-15 23:17:00,
2013-04-15 19:22:00,54.9,37.1,30.27,SSE,165,0.0,7.0,51,0.00,,BKN260,0.00,VWS V14.01,2013-04-15 23:22:00,
2013-04-15 19:27:00,54.5,37.2,30.27,South,189,4.0,7.0,52,0.00,,BKN260,0.00,VWS V14.01,2013-04-15 23:27:00,
2013-04-15 19:32:00,54.2,36.5,30.28,SSW,192,4.0,4.0,51,0.00,,BKN260,0.00,VWS V14.01,2013-04-15 23:32:00,
2013-04-15 19:37:00,53.9,36.2,30.28,SSW,205,0.0,5.0,51,0.00,,BKN260,0.00,VWS V14.01,2013-04-15 23:37:00,
2013-04-15 19:42:00,53.7,36.0,30.29,SSW,201,4.0,6.0,51,0.00,,BKN260,0.00,VWS V14.01,2013-04-15 23:42:00,
2013-04-15 19:47:00,53.5,36.8,30.29,South,181,3.0,6.0,53,0.00,,BKN260,0.00,VWS V14.01,2013-04-15 23:47:00,
2013-04-15 19:52:00,53.2,37.0,30.29,South,184,2.0,6.0,54,0.00,,BKN260,0.00,VWS V14.01,2013-04-15 23:52:00,
2013-04-15 19:57:00,52.9,36.7,30.29,SSW,199,0.0,6.0,54,0.00,,BKN260,0.00,VWS V14.01,2013-04-15 23:57:00,
2013-04-15 20:02:00,52.8,36.6,30.30,SSW,199,0.0,1.0,54,0.00,,BKN260,0.00,VWS V14.01,2013-04-16 00:02:00,
2013-04-15 20:07:00,52.6,37.4,30.30,South,185,2.0,4.0,56,0.00,,BKN260,0.00,VWS V14.01,2013-04-16 00:07:00,
2013-04-15 20:12:00,52.4,37.2,30.30,SSW,212,1.0,5.0,56,0.00,,BKN260,0.00,VWS V14.01,2013-04-16 00:12:00,
2013-04-15 20:17:00,52.1,37.8,30.30,South,191,0.0,5.0,58,0.00,,BKN260,0.00,VWS V14.01,2013-04-16 00:17:00,
2013-04-15 20:22:00,52.0,38.6,30.30,SSE,155,4.0,5.0,60,0.00,,BKN260,0.00,VWS V14.01,2013-04-16 00:22:00,
2013-04-15 20:27:00,52.0,39.4,30.30,SSE,160,0.0,5.0,62,0.00,,BKN260,0.00,VWS V14.01,2013-04-16 00:27:00,
2013-04-15 20:32:00,51.8,39.6,30.30,SSW,211,4.0,5.0,63,0.00,,BKN260,0.00,VWS V14.01,2013-04-16 00:32:00,
2013-04-15 20:37:00,51.6,39.9,30.30,South,179,3.0,5.0,64,0.00,,BKN260,0.00,VWS V14.01,2013-04-16 00:37:00,
2013-04-15 20:42:00,51.5,39.7,30.30,South,182,1.0,6.0,64,0.00,,BKN260,0.00,VWS V14.01,2013-04-16 00:42:00,
2013-04-15 20:47:00,51.1,39.8,30.30,SW,215,3.0,7.0,65,0.00,,BKN260,0.00,VWS V14.01,2013-04-16 00:47:00,
2013-04-15 20:52:00,51.0,40.4,30.30,SSW,203,2.0,7.0,67,0.00,,BKN260,0.00,VWS V14.01,2013-04-16 00:52:00,
2013-04-15 20:57:00,50.9,40.3,30.30,South,186,4.0,7.0,67,0.00,,BKN260,0.00,VWS V14.01,2013-04-16 00:57:00,
2013-04-15 21:02:00,50.8,40.2,30.30,South,177,0.0,4.0,67,0.00,,BKN260,0.00,VWS V14.01,2013-04-16 01:02:00,
2013-04-15 21:07:00,50.7,40.5,30.31,South,176,0.0,4.0,68,0.00,,BKN260,0.00,VWS V14.01,2013-04-16 01:07:00,
2013-04-15 21:12:00,50.6,40.4,30.31,South,188,0.0,5.0,68,0.00,,BKN260,0.00,VWS V14.01,2013-04-16 01:12:00,
2013-04-15 21:17:00,50.5,40.7,30.31,SSW,208,1.0,5.0,69,0.00,,BKN260,0.00,VWS V14.01,2013-04-16 01:17:00,
2013-04-15 21:22:00,50.5,40.7,30.31,SSW,208,0.0,5.0,69,0.00,,BKN260,0.00,VWS V14.01,2013-04-16 01:22:00,
2013-04-15 21:27:00,50.4,41.0,30.31,SSE,165,0.0,5.0,70,0.00,,BKN260,0.00,VWS V14.01,2013-04-16 01:27:00,
2013-04-15 21:32:00,50.3,40.9,30.32,SSE,160,0.0,2.0,70,0.00,,BKN260,0.00,VWS V14.01,2013-04-16 01:32:00,
2013-04-15 21:37:00,50.1,40.7,30.31,SSE,160,0.0,2.0,70,0.00,,BKN260,0.00,VWS V14.01,2013-04-16 01:37:00,
2013-04-15 21:42:00,50.0,40.6,30.31,SSE,160,0.0,2.0,70,0.00,,BKN260,0.00,VWS V14.01,2013-04-16 01:42:00,
2013-04-15 21:47:00,49.9,41.0,30.32,South,179,3.0,5.0,71,0.00,,BKN260,0.00,VWS V14.01,2013-04-16 01:47:00,
2013-04-15 21:52:00,49.7,40.7,30.31,South,179,0.0,5.0,71,0.00,,BKN260,0.00,VWS V14.01,2013-04-16 01:52:00,
2013-04-15 21:57:00,49.7,41.0,30.31,South,179,0.0,5.0,72,0.00,,BKN260,0.00,VWS V14.01,2013-04-16 01:57:00,
2013-04-15 22:02:00,49.6,41.0,30.32,South,179,0.0,0.0,72,0.00,,SCT260,0.00,VWS V14.01,2013-04-16 02:02:00,
2013-04-15 22:07:00,49.6,41.0,30.31,South,179,1.0,2.0,72,0.00,,SCT260,0.00,VWS V14.01,2013-04-16 02:07:00,
2013-04-15 22:12:00,49.5,40.9,30.31,SSE,166,0.0,4.0,72,0.00,,SCT260,0.00,VWS V14.01,2013-04-16 02:12:00,
2013-04-15 22:17:00,49.5,40.9,30.31,SSW,194,0.0,4.0,72,0.00,,SCT260,0.00,VWS V14.01,2013-04-16 02:17:00,
2013-04-15 22:22:00,49.5,41.2,30.31,SSE,160,0.0,5.0,73,0.00,,SCT260,0.00,VWS V14.01,2013-04-16 02:22:00,
2013-04-15 22:27:00,49.4,41.1,30.31,SW,236,0.0,5.0,73,0.00,,SCT260,0.00,VWS V14.01,2013-04-16 02:27:00,
2013-04-15 22:32:00,49.3,41.0,30.31,SW,223,0.0,1.0,73,0.00,,SCT260,0.00,VWS V14.01,2013-04-16 02:32:00,
2013-04-15 22:37:00,49.2,41.3,30.32,SSE,159,2.0,5.0,74,0.00,,SCT260,0.00,VWS V14.01,2013-04-16 02:37:00,
2013-04-15 22:42:00,49.1,41.2,30.31,SSE,159,0.0,5.0,74,0.00,,SCT260,0.00,VWS V14.01,2013-04-16 02:42:00,
2013-04-15 22:47:00,49.0,41.1,30.31,SE,145,4.0,5.0,74,0.00,,SCT260,0.00,VWS V14.01,2013-04-16 02:47:00,
2013-04-15 22:52:00,49.0,41.1,30.31,SE,145,0.0,5.0,74,0.00,,SCT260,0.00,VWS V14.01,2013-04-16 02:52:00,
2013-04-15 22:57:00,48.9,40.6,30.31,SSE,157,0.0,6.0,73,0.00,,SCT260,0.00,VWS V14.01,2013-04-16 02:57:00,
2013-04-15 23:02:00,48.7,40.5,30.31,SSE,157,0.0,2.0,73,0.00,,SCT250,0.00,VWS V14.01,2013-04-16 03:02:00,
2013-04-15 23:07:00,48.6,40.3,30.31,SSE,158,3.0,3.0,73,0.00,,SCT250,0.00,VWS V14.01,2013-04-16 03:07:00,
2013-04-15 23:12:00,48.5,40.2,30.31,SSE,157,0.0,3.0,73,0.00,,SCT250,0.00,VWS V14.01,2013-04-16 03:12:00,
2013-04-15 23:17:00,48.5,39.9,30.31,SSE,164,0.0,3.0,72,0.00,,SCT250,0.00,VWS V14.01,2013-04-16 03:17:00,
2013-04-15 23:22:00,48.3,40.1,30.32,SSE,164,0.0,3.0,73,0.00,,SCT250,0.00,VWS V14.01,2013-04-16 03:22:00,
2013-04-15 23:27:00,48.3,40.1,30.31,SSE,164,0.0,3.0,73,0.00,,SCT250,0.00,VWS V14.01,2013-04-16 03:27:00,
2013-04-15 23:32:00,48.2,39.6,30.31,SSE,164,0.0,2.0,72,0.00,,SCT250,0.00,VWS V14.01,2013-04-16 03:32:00,
2013-04-15 23:37:00,48.2,39.6,30.31,SSW,206,0.0,5.0,72,0.00,,SCT250,0.00,VWS V14.01,2013-04-16 03:37:00,
2013-04-15 23:42:00,48.0,39.8,30.31,SE,140,2.0,6.0,72,0.00,,SCT250,0.00,VWS V14.01,2013-04-16 03:42:00,
2013-04-15 23:47:00,48.1,39.5,30.32,SE,140,0.0,6.0,72,0.00,,SCT250,0.00,VWS V14.01,2013-04-16 03:47:00,
2013-04-15 23:52:00,47.8,39.2,30.31,SE,140,0.0,6.0,72,0.00,,SCT250,0.00,VWS V14.01,2013-04-16 03:52:00,
2013-04-15 23:57:00,48.0,39.4,30.31,SE,140,0.0,6.0,72,0.00,,SCT250,0.00,VWS V14.01,2013-04-16 03:57:00,